Hartford, Connecticut
Traffic Map
Current Weather Conditions
Hartford, Connecticut
Few Clouds
Few Clouds
22°
Feels Like: 22°
Wind Chill: 22° Ceiling: Unl
Heat Index: 22° Visibility: 10mi
Dew Point: 21° Wind: 0mph
Humidity: 91% Direction: ° ()
Pressure: 29.77in Gusts: 0mph
Raw Report DataKHFD 240553Z AUTO 00000KT 10SM FEW042 22/21 A2977 RMK AO2 SLP081 60015 T02220206 10267 20222 58004
Traffic Incident Summary
Active as of:
Severity:
Category:
InformationThere was an issue retrieving the traffic information for this location. Please try a different location or try again shortly.
Advertisements
Track Severe Weather on mobile